Time;durP1;ratioP1;P1;durP2;ratioP2;P2;SDS_P1;SDS_P2;PMS_P1;PMS_P2;Temp;Humidity;BMP_temperature;BMP_pressure;BME280_temperature;BME280_humidity;BME280_pressure;Samples;Min_cycle;Max_cycle;Signal;HPM_P1;HPM_P2
2023/04/12 00:00:32;;;;;;;1.75;1.05;;;;;;;21.83;27.50;99811.31;4517148;28;20032;-60
2023/04/12 00:02:43;;;;;;;1.42;0.80;;;;;;;21.79;27.33;99804.69;4534068;28;20037;-59
2023/04/12 00:04:56;;;;;;;2.15;0.98;;;;;;;21.82;27.44;99797.31;4534107;28;20043;-60
2023/04/12 00:07:08;;;;;;;1.85;1.00;;;;;;;21.77;27.54;99792.75;4533035;28;20035;-59
2023/04/12 00:09:19;;;;;;;2.22;1.40;;;;;;;21.80;27.59;99789.09;4534274;28;20127;-60
2023/04/12 00:11:30;;;;;;;1.90;1.08;;;;;;;21.80;27.44;99779.66;4534679;28;20774;-60
2023/04/12 00:13:41;;;;;;;2.10;0.95;;;;;;;21.68;27.57;99754.88;4533962;28;20481;-60
2023/04/12 00:15:51;;;;;;;2.03;1.08;;;;;;;21.80;27.62;99782.53;4536352;28;20038;-60
2023/04/12 00:18:02;;;;;;;2.65;1.42;;;;;;;21.80;27.58;99773.91;4532776;28;20025;-59
2023/04/12 00:20:15;;;;;;;3.35;1.52;;;;;;;21.80;27.56;99760.34;4535161;28;20045;-59
2023/04/12 00:22:25;;;;;;;2.28;1.10;;;;;;;21.80;27.40;99754.59;4533118;28;20041;-61
2023/04/12 00:24:39;;;;;;;1.90;1.10;;;;;;;21.80;27.17;99745.19;4533461;28;20020;-60
2023/04/12 00:26:50;;;;;;;1.73;0.70;;;;;;;21.79;27.19;99732.88;4516705;28;20033;-60
2023/04/12 00:29:00;;;;;;;1.50;0.70;;;;;;;21.79;27.22;99726.28;4532408;28;20108;-60
2023/04/12 00:31:11;;;;;;;0.80;0.68;;;;;;;21.76;27.00;99716.41;4531708;28;20467;-60
2023/04/12 00:33:21;;;;;;;1.13;0.70;;;;;;;21.77;27.05;99720.94;4517170;28;20052;-59
2023/04/12 00:35:31;;;;;;;0.98;0.73;;;;;;;21.77;27.18;99717.25;4531688;28;20072;-60
2023/04/12 00:37:42;;;;;;;2.08;1.13;;;;;;;21.76;27.28;99704.09;4534290;28;20501;-60
2023/04/12 00:39:52;;;;;;;2.17;1.35;;;;;;;21.64;26.98;99684.28;4532308;28;20094;-59
2023/04/12 00:42:04;;;;;;;2.65;1.27;;;;;;;21.76;27.61;99704.94;4523070;28;20037;-60
2023/04/12 00:44:16;;;;;;;2.85;1.15;;;;;;;21.78;27.50;99702.50;4515390;28;20029;-59
2023/04/12 00:46:28;;;;;;;2.13;1.20;;;;;;;21.76;27.33;99687.69;4532648;28;20057;-60
2023/04/12 00:48:39;;;;;;;1.95;1.10;;;;;;;21.77;27.20;99688.53;4517975;28;20026;-60
2023/04/12 00:50:50;;;;;;;2.85;1.60;;;;;;;21.73;27.12;99679.84;4534964;28;20656;-59
2023/04/12 00:53:02;;;;;;;2.88;1.73;;;;;;;21.76;27.10;99679.09;4516156;28;20165;-58
2023/04/12 00:55:14;;;;;;;1.73;1.02;;;;;;;21.72;27.28;99678.19;4533883;28;20033;-59
2023/04/12 00:57:25;;;;;;;2.15;1.33;;;;;;;21.75;27.23;99686.06;4516150;28;20034;-60
2023/04/12 00:59:35;;;;;;;1.75;0.90;;;;;;;21.73;27.59;99685.59;4534758;28;20493;-59
2023/04/12 01:01:46;;;;;;;1.17;0.60;;;;;;;21.71;27.56;99679.41;4521202;28;20355;-59
2023/04/12 01:04:00;;;;;;;0.68;0.50;;;;;;;21.71;27.71;99675.69;4521795;28;20108;-60
2023/04/12 01:06:37;;;;;;;0.65;0.55;;;;;;;21.75;27.66;99685.19;4534846;28;20026;-59
2023/04/12 01:09:07;;;;;;;0.75;0.50;;;;;;;21.75;27.47;99685.19;4515522;28;20038;-59
2023/04/12 01:11:38;;;;;;;0.77;0.50;;;;;;;21.74;27.74;99684.34;4532506;28;21050;-59
2023/04/12 01:14:26;;;;;;;0.60;0.50;;;;;;;21.73;27.90;99676.13;4517163;28;20049;-59
2023/04/12 01:16:44;;;;;;;0.50;0.47;;;;;;;21.74;28.13;99677.81;4482161;28;20086;-60
2023/04/12 01:19:18;;;;;;;0.80;0.60;;;;;;;21.69;28.26;99670.34;4532191;28;20029;-60
2023/04/12 01:21:50;;;;;;;0.40;0.40;;;;;;;21.69;27.68;99664.63;4533232;28;21236;-60
2023/04/12 01:24:16;;;;;;;0.52;0.40;;;;;;;21.70;28.13;99663.41;4518775;28;20678;-59
2023/04/12 01:26:47;;;;;;;1.45;0.45;;;;;;;21.71;28.13;99659.31;4515864;28;20125;-60
2023/04/12 01:29:01;;;;;;;1.02;0.55;;;;;;;21.72;27.75;99660.94;4517550;28;20033;-59
2023/04/12 01:31:13;;;;;;;0.50;0.50;;;;;;;21.61;27.76;99642.81;4531783;28;20158;-59
2023/04/12 01:33:30;;;;;;;1.13;0.50;;;;;;;21.70;27.84;99651.94;4515428;28;20116;-60
2023/04/12 01:35:41;;;;;;;0.60;0.40;;;;;;;21.68;27.92;99639.16;4532954;28;20037;-59
2023/04/12 01:37:52;;;;;;;0.73;0.60;;;;;;;21.55;27.76;99609.13;4518759;28;20049;-59
2023/04/12 01:40:06;;;;;;;2.05;1.00;;;;;;;21.65;28.03;99629.31;4531293;28;20028;-60
2023/04/12 01:42:22;;;;;;;2.78;1.30;;;;;;;21.71;27.74;99626.88;4533375;28;20025;-59
2023/04/12 01:44:32;;;;;;;2.30;1.20;;;;;;;21.70;28.17;99623.22;4532103;28;20488;-59
2023/04/12 01:46:47;;;;;;;3.38;1.58;;;;;;;21.68;28.11;99614.16;4531465;28;20160;-59
2023/04/12 01:48:57;;;;;;;2.15;1.08;;;;;;;21.70;28.12;99614.59;4513489;28;21320;-60
2023/04/12 01:51:33;;;;;;;1.30;0.70;;;;;;;21.63;28.16;99608.78;4531438;28;20037;-59
2023/04/12 01:54:10;;;;;;;2.50;0.70;;;;;;;21.69;28.66;99607.19;4533711;28;20041;-59
2023/04/12 01:56:21;;;;;;;0.80;0.45;;;;;;;21.69;28.75;99612.91;4532514;28;20071;-59
2023/04/12 01:58:33;;;;;;;0.95;0.52;;;;;;;21.59;28.19;99590.72;4517597;28;20066;-59
2023/04/12 02:00:44;;;;;;;1.00;0.60;;;;;;;21.66;28.17;99601.44;4520322;28;20076;-60
2023/04/12 02:02:56;;;;;;;1.05;0.50;;;;;;;21.67;27.84;99609.66;4535009;28;20047;-59
2023/04/12 02:05:08;;;;;;;0.57;0.50;;;;;;;21.67;27.99;99603.06;4524544;28;20037;-60
2023/04/12 02:07:19;;;;;;;0.63;0.50;;;;;;;21.68;27.95;99611.28;4532442;28;20032;-60
2023/04/12 02:09:34;;;;;;;1.02;0.40;;;;;;;21.60;27.66;99598.09;4522674;28;20487;-59
2023/04/12 02:11:47;;;;;;;0.77;0.50;;;;;;;21.66;28.26;99589.94;4515316;28;20029;-59
2023/04/12 02:13:58;;;;;;;0.40;0.40;;;;;;;21.67;28.02;99586.66;4531221;28;20258;-59
2023/04/12 02:16:12;;;;;;;0.52;0.50;;;;;;;21.62;27.87;99566.94;4522982;28;20808;-59
2023/04/12 02:18:23;;;;;;;1.13;0.43;;;;;;;21.68;28.30;99573.13;4512759;28;20033;-59
2023/04/12 02:20:34;;;;;;;1.02;0.52;;;;;;;21.66;28.27;99567.78;4514183;28;20041;-59
2023/04/12 02:22:45;;;;;;;0.50;0.50;;;;;;;21.67;28.49;99572.31;4531350;28;20036;-59
2023/04/12 02:24:56;;;;;;;0.40;0.40;;;;;;;21.64;28.18;99563.66;4515665;28;20099;-60
2023/04/12 02:27:06;;;;;;;0.30;0.30;;;;;;;21.58;28.10;99560.31;4533205;28;20033;-61
2023/04/12 02:29:18;;;;;;;0.30;0.30;;;;;;;21.65;28.35;99566.13;4515617;28;20593;-59
2023/04/12 02:31:31;;;;;;;0.98;0.43;;;;;;;21.62;28.14;99555.44;4530975;28;20123;-60
2023/04/12 02:33:42;;;;;;;1.23;0.45;;;;;;;21.66;28.19;99555.47;4530315;28;20048;-60
2023/04/12 02:35:56;;;;;;;0.85;0.52;;;;;;;21.64;28.00;99549.31;4514411;28;20560;-59
2023/04/12 02:38:07;;;;;;;1.45;0.50;;;;;;;21.66;27.86;99549.72;4520185;28;20707;-60
2023/04/12 02:40:18;;;;;;;0.40;0.40;;;;;;;21.64;28.02;99544.41;4532205;28;20033;-60
2023/04/12 02:42:29;;;;;;;0.93;0.40;;;;;;;21.24;27.80;99475.59;4533067;28;20401;-60
2023/04/12 02:44:42;;;;;;;0.43;0.32;;;;;;;21.64;28.18;99534.94;4519677;28;20087;-60
2023/04/12 02:46:57;;;;;;;0.65;0.40;;;;;;;21.60;28.30;99522.59;4518291;28;20522;-59
2023/04/12 02:49:07;;;;;;;0.65;0.60;;;;;;;21.63;28.20;99522.63;4504826;28;20030;-59
2023/04/12 02:51:23;;;;;;;1.10;0.50;;;;;;;21.61;27.94;99519.31;4516133;28;20037;-59
2023/04/12 02:53:34;;;;;;;0.73;0.45;;;;;;;21.63;27.96;99516.03;4500496;28;20116;-59
2023/04/12 02:56:00;;;;;;;0.80;0.40;;;;;;;21.62;28.08;99508.66;4532840;28;20040;-61
2023/04/12 02:58:11;;;;;;;1.05;0.47;;;;;;;21.60;28.25;99506.19;4534023;28;20502;-58
2023/04/12 03:00:27;;;;;;;;;;;;;;;21.63;27.90;99498.81;4504192;28;20129;-59
2023/04/12 03:02:43;;;;;;;0.93;0.50;;;;;;;21.63;28.11;99505.41;4523149;28;19917;-59
2023/04/12 03:05:02;;;;;;;0.88;0.50;;;;;;;21.59;28.45;99498.81;4517632;28;20180;-59
2023/04/12 03:07:20;;;;;;;1.10;0.60;;;;;;;21.61;28.01;99484.88;4535229;28;20121;-60
2023/04/12 03:09:33;;;;;;;1.25;0.70;;;;;;;21.60;28.06;99474.59;4517938;28;20033;-59
2023/04/12 03:11:46;;;;;;;1.52;0.82;;;;;;;21.61;28.57;99470.50;4515690;28;20045;-59
2023/04/12 03:13:57;;;;;;;2.17;1.00;;;;;;;21.58;28.43;99464.75;4521029;28;20046;-60
2023/04/12 03:16:24;;;;;;;1.92;0.85;;;;;;;21.61;28.47;99461.09;4533706;28;20044;-60
2023/04/12 03:18:39;;;;;;;2.00;0.88;;;;;;;21.59;28.45;99458.63;4536663;28;20081;-59
2023/04/12 03:20:51;;;;;;;2.45;1.23;;;;;;;21.55;28.54;99446.28;4534558;28;20412;-59
2023/04/12 03:23:02;;;;;;;2.45;1.33;;;;;;;21.57;28.13;99452.44;4515015;28;20038;-59
2023/04/12 03:25:16;;;;;;;2.33;1.30;;;;;;;21.53;28.42;99442.16;4536803;28;20025;-60
2023/04/12 03:27:32;;;;;;;2.72;1.20;;;;;;;21.60;28.49;99454.50;4520490;28;20033;-59
2023/04/12 03:29:42;;;;;;;1.58;0.80;;;;;;;21.56;28.36;99442.19;4517809;28;20030;-60
2023/04/12 03:31:53;;;;;;;1.65;0.80;;;;;;;21.58;28.75;99442.59;4535832;28;20039;-59
2023/04/12 03:34:05;;;;;;;1.40;0.70;;;;;;;21.56;28.85;99424.97;4536105;28;20036;-60
2023/04/12 03:36:16;;;;;;;0.75;0.47;;;;;;;21.56;28.95;99419.22;4493382;28;21186;-60
2023/04/12 03:38:28;;;;;;;1.27;0.60;;;;;;;21.54;28.67;99413.06;4535399;28;20076;-59
2023/04/12 03:40:39;;;;;;;0.88;0.50;;;;;;;21.56;28.82;99406.91;4531992;28;20037;-59
2023/04/12 03:42:50;;;;;;;1.38;0.50;;;;;;;21.55;28.61;99403.19;4510399;28;20956;-59
2023/04/12 03:45:00;;;;;;;0.40;0.40;;;;;;;21.56;28.51;99396.25;4534159;28;20485;-59
2023/04/12 03:47:11;;;;;;;0.82;0.50;;;;;;;21.55;28.37;99388.84;4518749;28;20148;-59
2023/04/12 03:49:22;;;;;;;0.50;0.50;;;;;;;21.56;28.45;99393.38;4531467;28;20131;-59
2023/04/12 03:51:32;;;;;;;0.45;0.45;;;;;;;21.51;28.84;99381.44;4523162;28;20083;-60
2023/04/12 03:53:45;;;;;;;1.35;0.95;;;;;;;21.56;28.80;99381.91;4534360;28;20049;-60
2023/04/12 03:55:59;;;;;;;0.98;0.50;;;;;;;21.53;28.76;99362.59;4522981;28;20658;-58
2023/04/12 03:58:15;;;;;;;0.77;0.40;;;;;;;21.56;29.38;99369.59;4535747;28;20616;-60
2023/04/12 04:00:30;;;;;;;0.90;0.55;;;;;;;21.52;28.86;99360.94;4533652;28;20029;-59
2023/04/12 04:02:51;;;;;;;0.85;0.40;;;;;;;21.55;29.33;99350.72;4531811;28;20040;-59
2023/04/12 04:05:04;;;;;;;0.47;0.40;;;;;;;21.54;29.10;99343.31;4514299;28;20081;-60
2023/04/12 04:07:14;;;;;;;0.63;0.38;;;;;;;21.52;28.97;99335.09;4524434;28;20068;-60
2023/04/12 04:09:27;;;;;;;0.70;0.40;;;;;;;21.55;29.19;99337.16;4517987;28;20025;-59
2023/04/12 04:11:38;;;;;;;1.05;0.52;;;;;;;21.50;29.45;99323.19;4531876;28;20512;-59
2023/04/12 04:13:50;;;;;;;1.00;0.45;;;;;;;21.50;29.58;99314.59;4519366;28;20076;-60
2023/04/12 04:16:08;;;;;;;0.82;0.40;;;;;;;21.55;29.45;99313.41;4532884;28;20855;-59
2023/04/12 04:18:19;;;;;;;1.17;0.40;;;;;;;21.52;29.34;99309.28;4502035;28;20112;-59
2023/04/12 04:20:31;;;;;;;0.60;0.40;;;;;;;21.54;29.15;99311.72;4519358;28;20088;-60
2023/04/12 04:22:43;;;;;;;1.08;0.60;;;;;;;21.52;29.52;99312.13;4516327;28;20025;-60
2023/04/12 04:24:54;;;;;;;0.43;0.30;;;;;;;21.51;29.32;99298.19;4516813;28;20026;-59
2023/04/12 04:27:05;;;;;;;0.95;0.40;;;;;;;21.47;29.18;99289.56;4533619;28;20132;-59
2023/04/12 04:29:17;;;;;;;0.55;0.40;;;;;;;21.51;29.48;99290.41;4521728;28;20034;-60
2023/04/12 04:31:35;;;;;;;0.77;0.40;;;;;;;21.50;29.42;99290.81;4531763;28;20037;-60
2023/04/12 04:33:46;;;;;;;0.93;0.45;;;;;;;21.53;29.00;99290.81;4533218;28;20169;-60
2023/04/12 04:35:57;;;;;;;1.05;0.40;;;;;;;21.50;29.10;99285.88;4533071;28;20047;-60
2023/04/12 04:38:12;;;;;;;0.30;0.30;;;;;;;21.38;29.32;99263.28;4533251;28;20033;-60
2023/04/12 04:40:23;;;;;;;0.80;0.50;;;;;;;21.46;29.10;99267.84;4515290;28;20304;-60
2023/04/12 04:42:35;;;;;;;0.47;0.32;;;;;;;21.50;29.57;99277.25;4529860;28;20556;-59
2023/04/12 04:44:49;;;;;;;0.63;0.38;;;;;;;21.50;29.47;99276.47;4525286;28;20053;-59
2023/04/12 04:47:00;;;;;;;0.68;0.38;;;;;;;21.50;29.22;99267.84;4501707;28;20041;-59
2023/04/12 04:49:11;;;;;;;0.50;0.20;;;;;;;21.49;29.48;99269.06;4515154;28;20038;-59
2023/04/12 04:51:22;;;;;;;0.38;0.30;;;;;;;21.49;29.63;99264.16;4533761;28;20137;-60
2023/04/12 04:53:32;;;;;;;0.75;0.30;;;;;;;21.49;29.19;99240.34;4532646;28;20036;-60
2023/04/12 04:55:43;;;;;;;0.47;0.40;;;;;;;21.44;29.42;99238.69;4517307;28;20033;-59
2023/04/12 04:57:56;;;;;;;0.28;0.28;;;;;;;21.48;29.25;99238.72;4533097;28;20024;-59
2023/04/12 05:00:10;;;;;;;1.75;0.82;;;;;;;21.50;29.57;99239.94;4535094;28;20048;-59
2023/04/12 05:02:21;;;;;;;1.15;0.50;;;;;;;21.43;29.50;99237.06;4515103;28;20907;-59
2023/04/12 05:04:32;;;;;;;0.65;0.47;;;;;;;21.48;29.35;99225.19;4531891;28;20087;-59
2023/04/12 05:06:42;;;;;;;0.88;0.50;;;;;;;21.51;29.92;99235.03;4532742;28;20094;-59
2023/04/12 05:08:55;;;;;;;0.73;0.40;;;;;;;21.50;29.73;99225.59;4519595;28;20038;-59
2023/04/12 05:11:06;;;;;;;0.82;0.40;;;;;;;21.50;29.91;99225.59;4517827;28;20076;-60
2023/04/12 05:13:18;;;;;;;0.85;0.40;;;;;;;21.49;29.65;99218.22;4515762;28;20061;-59
2023/04/12 05:15:30;;;;;;;0.70;0.50;;;;;;;21.51;29.70;99218.63;4524362;28;20530;-59
2023/04/12 05:17:41;;;;;;;0.32;0.32;;;;;;;21.49;29.54;99208.78;4530244;28;20033;-59
2023/04/12 05:19:52;;;;;;;0.40;0.40;;;;;;;21.49;29.85;99198.13;4529981;28;20033;-59
2023/04/12 05:22:02;;;;;;;0.30;0.30;;;;;;;21.49;29.96;99203.03;4531554;28;20728;-62
2023/04/12 05:24:13;;;;;;;0.40;0.40;;;;;;;21.49;30.01;99200.16;4502109;28;20034;-63
2023/04/12 05:26:26;;;;;;;0.73;0.38;;;;;;;21.49;29.70;99194.41;4515117;28;20518;-59
2023/04/12 05:28:37;;;;;;;0.52;0.40;;;;;;;21.49;29.64;99198.13;4518493;28;20096;-59
2023/04/12 05:30:51;;;;;;;0.77;0.40;;;;;;;21.49;30.17;99201.00;4530298;28;20025;-61
2023/04/12 05:33:06;;;;;;;0.47;0.40;;;;;;;21.48;30.15;99192.78;4530868;28;20045;-60
2023/04/12 05:35:17;;;;;;;0.77;0.50;;;;;;;21.45;30.05;99182.94;4529184;28;20510;-59
2023/04/12 05:37:29;;;;;;;0.77;0.40;;;;;;;21.47;30.09;99180.47;4532010;28;20794;-59
2023/04/12 05:39:39;;;;;;;0.43;0.40;;;;;;;21.43;30.13;99179.66;4530696;28;20073;-59
2023/04/12 05:41:53;;;;;;;0.52;0.40;;;;;;;21.49;30.15;99189.50;4515019;28;20040;-59
2023/04/12 05:44:03;;;;;;;0.52;0.40;;;;;;;21.47;30.25;99179.66;4528913;28;20045;-61
2023/04/12 05:46:14;;;;;;;0.40;0.40;;;;;;;21.44;30.28;99169.81;4532437;28;20171;-59
2023/04/12 05:48:26;;;;;;;0.80;0.40;;;;;;;21.44;30.35;99172.69;4512771;28;20085;-59
2023/04/12 05:50:39;;;;;;;0.30;0.30;;;;;;;21.46;30.29;99173.09;4515863;28;20595;-59
2023/04/12 05:52:50;;;;;;;0.40;0.40;;;;;;;21.48;30.41;99164.06;4530984;28;20702;-60
2023/04/12 05:55:01;;;;;;;0.35;0.30;;;;;;;21.47;30.12;99156.72;4533059;28;20542;-59
2023/04/12 05:57:14;;;;;;;0.20;0.20;;;;;;;21.47;30.32;99148.91;4523309;28;20083;-59
2023/04/12 05:59:25;;;;;;;0.22;0.22;;;;;;;21.48;30.42;99150.56;4529781;28;20707;-60
2023/04/12 06:01:35;;;;;;;0.40;0.25;;;;;;;21.46;30.40;99140.69;4531078;28;20750;-59
2023/04/12 06:03:47;;;;;;;0.28;0.28;;;;;;;21.48;30.52;99147.69;4519695;28;20187;-60
2023/04/12 06:05:57;;;;;;;0.20;0.20;;;;;;;21.47;30.57;99137.41;4515850;28;20048;-60
2023/04/12 06:08:09;;;;;;;0.38;0.30;;;;;;;21.47;30.57;99122.25;4533491;28;20047;-59
2023/04/12 06:10:20;;;;;;;0.35;0.30;;;;;;;21.43;30.66;99116.50;4513651;28;20100;-59
2023/04/12 06:12:34;;;;;;;0.57;0.38;;;;;;;21.45;30.80;99125.53;4523619;28;20041;-59
2023/04/12 06:14:44;;;;;;;0.60;0.20;;;;;;;21.47;30.77;99125.94;4514870;28;20482;-60
2023/04/12 06:16:55;;;;;;;0.30;0.30;;;;;;;21.41;31.24;99118.97;4514522;28;20128;-59
2023/04/12 06:19:06;;;;;;;0.65;0.20;;;;;;;21.47;31.18;99116.53;4532871;28;20057;-59
2023/04/12 06:21:17;;;;;;;0.32;0.30;;;;;;;21.47;31.14;99111.56;4530970;28;20407;-60
2023/04/12 06:23:28;;;;;;;0.20;0.20;;;;;;;21.44;31.28;99095.19;4531118;28;20037;-60
2023/04/12 06:25:38;;;;;;;0.73;0.40;;;;;;;21.44;31.41;99100.91;4530958;28;20032;-58
2023/04/12 06:27:49;;;;;;;0.45;0.40;;;;;;;21.43;31.34;99096.41;4531692;28;20114;-59
2023/04/12 06:30:01;;;;;;;0.55;0.40;;;;;;;21.42;30.96;99086.16;4515048;28;20573;-59
2023/04/12 06:32:13;;;;;;;0.63;0.30;;;;;;;21.44;31.03;99083.69;4515098;28;20036;-59
2023/04/12 06:34:23;;;;;;;0.30;0.30;;;;;;;21.45;31.20;99084.53;4530092;28;20098;-59
2023/04/12 06:36:35;;;;;;;0.45;0.30;;;;;;;21.45;31.14;99082.47;4515307;28;20037;-60
2023/04/12 06:38:45;;;;;;;0.40;0.30;;;;;;;21.44;31.63;99068.50;4532650;28;20037;-59
2023/04/12 06:40:56;;;;;;;0.73;0.28;;;;;;;21.44;31.55;99071.38;4530524;28;20033;-58
2023/04/12 06:43:06;;;;;;;0.75;0.45;;;;;;;21.43;31.92;99069.75;4532177;28;20036;-60
2023/04/12 06:45:17;;;;;;;0.40;0.30;;;;;;;21.44;32.15;99072.22;4531435;28;20044;-59
2023/04/12 06:47:29;;;;;;;0.32;0.30;;;;;;;21.42;32.18;99065.25;4533674;28;20031;-59
2023/04/12 06:49:39;;;;;;;0.30;0.30;;;;;;;21.43;31.92;99064.00;4534234;28;20148;-60
2023/04/12 06:51:49;;;;;;;0.40;0.40;;;;;;;21.45;32.14;99062.38;4532413;28;20626;-59
2023/04/12 06:54:00;;;;;;;0.63;0.30;;;;;;;21.40;32.38;99056.22;4530260;28;20044;-59
2023/04/12 06:56:10;;;;;;;0.40;0.30;;;;;;;21.44;32.38;99054.16;4532240;28;20498;-60
2023/04/12 06:58:21;;;;;;;0.28;0.28;;;;;;;21.43;32.22;99050.50;4512142;28;20490;-60
2023/04/12 07:00:32;;;;;;;0.50;0.30;;;;;;;21.44;32.26;99052.13;4530942;28;20040;-59
2023/04/12 07:02:42;;;;;;;0.20;0.20;;;;;;;21.42;32.45;99039.41;4531144;28;20397;-60
2023/04/12 07:04:53;;;;;;;0.32;0.30;;;;;;;21.44;32.63;99034.91;4529703;28;20033;-61
2023/04/12 07:07:05;;;;;;;0.40;0.20;;;;;;;21.42;32.44;99027.94;4531542;28;20037;-60
2023/04/12 07:09:15;;;;;;;0.20;0.20;;;;;;;21.43;32.46;99036.13;4531810;28;20028;-60
2023/04/12 07:11:27;;;;;;;0.30;0.30;;;;;;;21.36;32.65;99013.16;4530760;28;20469;-62
2023/04/12 07:13:37;;;;;;;0.20;0.20;;;;;;;21.38;32.71;99021.34;4533921;28;20040;-59
2023/04/12 07:15:49;;;;;;;0.52;0.40;;;;;;;21.41;33.16;99018.50;4531033;28;20184;-60
2023/04/12 07:18:00;;;;;;;0.43;0.20;;;;;;;21.37;33.50;99008.25;4527762;28;20029;-60
2023/04/12 07:20:10;;;;;;;0.28;0.28;;;;;;;21.38;33.63;99009.88;4531812;28;20486;-58
2023/04/12 07:22:21;;;;;;;0.30;0.30;;;;;;;21.42;33.60;99017.25;4531474;28;20033;-60
2023/04/12 07:24:32;;;;;;;0.20;0.20;;;;;;;21.37;33.37;99002.50;4532189;28;20041;-60
2023/04/12 07:26:42;;;;;;;0.32;0.30;;;;;;;21.38;33.79;98999.22;4532863;28;20021;-60
2023/04/12 07:28:53;;;;;;;0.57;0.50;;;;;;;21.40;33.97;98998.81;4530540;28;20052;-60
2023/04/12 07:31:05;;;;;;;0.40;0.40;;;;;;;21.37;34.11;98982.41;4529879;28;20056;-59
2023/04/12 07:33:15;;;;;;;0.38;0.30;;;;;;;21.41;33.97;98997.56;4533177;28;20067;-60
2023/04/12 07:35:26;;;;;;;0.20;0.20;;;;;;;21.42;34.40;98987.75;4516059;28;20048;-59
2023/04/12 07:37:37;;;;;;;1.10;0.30;;;;;;;21.40;34.49;98991.03;4531733;28;20065;-58
2023/04/12 07:39:47;;;;;;;0.22;0.22;;;;;;;21.35;34.29;98971.34;4527954;28;20832;-58
2023/04/12 07:41:57;;;;;;;0.40;0.40;;;;;;;21.38;34.41;98970.53;4532122;28;20498;-59
2023/04/12 07:44:08;;;;;;;0.60;0.50;;;;;;;21.42;34.74;98979.13;4529215;28;20108;-58
2023/04/12 07:46:18;;;;;;;0.35;0.35;;;;;;;21.39;34.40;98971.34;4532117;28;20036;-58
2023/04/12 07:48:29;;;;;;;0.45;0.30;;;;;;;21.39;34.80;98969.28;4534226;28;20029;-59
2023/04/12 07:50:40;;;;;;;0.50;0.30;;;;;;;21.38;34.85;98964.78;4532010;28;20037;-59
2023/04/12 07:52:50;;;;;;;0.43;0.40;;;;;;;21.41;34.89;98968.88;4534297;28;20036;-59
2023/04/12 07:55:01;;;;;;;0.20;0.20;;;;;;;21.39;35.15;98948.41;4533918;28;20591;-59
2023/04/12 07:57:11;;;;;;;0.30;0.30;;;;;;;21.41;34.82;98969.69;4534548;28;20029;-58
2023/04/12 07:59:22;;;;;;;0.28;0.28;;;;;;;21.34;35.17;98941.03;4532768;28;20045;-58
2023/04/12 08:01:32;;;;;;;0.32;0.30;;;;;;;21.28;34.88;98924.63;4532482;28;20438;-59
2023/04/12 08:03:42;;;;;;;0.30;0.30;;;;;;;21.41;35.19;98945.91;4530015;28;20203;-58
2023/04/12 08:05:53;;;;;;;0.20;0.20;;;;;;;21.41;35.22;98946.75;4532182;28;20041;-58
2023/04/12 08:08:04;;;;;;;0.22;0.22;;;;;;;21.40;35.60;98939.38;4534109;28;20573;-58
2023/04/12 08:10:15;;;;;;;0.30;0.30;;;;;;;21.42;35.37;98939.75;4532273;28;20043;-59
2023/04/12 08:12:26;;;;;;;0.30;0.30;;;;;;;21.39;35.43;98931.19;4516992;28;20060;-59
2023/04/12 08:14:36;;;;;;;0.20;0.20;;;;;;;21.40;35.58;98932.81;4532460;28;20087;-59
2023/04/12 08:16:47;;;;;;;0.20;0.20;;;;;;;21.40;35.41;98927.88;4534135;28;20223;-59
2023/04/12 08:18:57;;;;;;;0.30;0.30;;;;;;;21.39;35.59;98931.19;4533886;28;20029;-58
2023/04/12 08:21:08;;;;;;;0.20;0.20;;;;;;;21.40;35.75;98927.88;4534332;28;20072;-58
2023/04/12 08:23:19;;;;;;;0.20;0.20;;;;;;;21.38;35.74;98918.88;4535727;28;20029;-59
2023/04/12 08:25:29;;;;;;;0.25;0.20;;;;;;;21.43;36.02;98920.50;4532887;28;20454;-59
2023/04/12 08:27:42;;;;;;;0.20;0.20;;;;;;;21.41;35.87;98918.03;4531493;28;20231;-58
2023/04/12 08:29:53;;;;;;;0.30;0.20;;;;;;;21.45;35.81;98920.91;4535458;28;20568;-58
2023/04/12 08:32:04;;;;;;;0.20;0.20;;;;;;;21.45;35.80;98918.88;4534404;28;20025;-58
2023/04/12 08:34:14;;;;;;;0.20;0.20;;;;;;;21.39;36.37;98911.88;4532728;28;20477;-58
2023/04/12 08:36:26;;;;;;;0.20;0.20;;;;;;;21.46;36.10;98911.06;4533149;28;20487;-59
2023/04/12 08:38:36;;;;;;;0.20;0.20;;;;;;;21.46;35.88;98909.00;4532183;28;20618;-59
2023/04/12 08:40:47;;;;;;;0.20;0.20;;;;;;;21.48;35.76;98905.72;4535800;28;20034;-58
2023/04/12 08:43:01;;;;;;;0.17;0.17;;;;;;;21.45;36.13;98906.56;4533192;28;20036;-58
2023/04/12 08:45:11;;;;;;;0.10;0.10;;;;;;;21.38;36.09;98889.34;4531875;28;20033;-58
2023/04/12 08:47:22;;;;;;;0.20;0.20;;;;;;;21.47;36.28;98893.41;4531995;28;20032;-58
2023/04/12 08:49:33;;;;;;;0.10;0.10;;;;;;;21.49;35.70;98895.88;4532201;28;20036;-58
2023/04/12 08:51:44;;;;;;;0.20;0.20;;;;;;;21.48;35.96;98889.31;4536565;28;20041;-58
2023/04/12 08:53:55;;;;;;;0.20;0.20;;;;;;;21.50;35.76;98886.84;4532894;28;20067;-59
2023/04/12 08:56:09;;;;;;;0.20;0.20;;;;;;;21.48;36.01;98877.84;4533077;28;20099;-59
2023/04/12 08:58:20;;;;;;;0.20;0.20;;;;;;;21.50;35.63;98875.34;4513099;28;21094;-58
2023/04/12 09:00:30;;;;;;;0.30;0.30;;;;;;;21.49;36.19;98870.84;4533220;28;20033;-59
2023/04/12 09:02:45;;;;;;;0.20;0.20;;;;;;;21.52;36.11;98887.25;4531997;28;20033;-58
2023/04/12 09:04:57;;;;;;;0.20;0.20;;;;;;;21.47;35.66;98861.03;4531501;28;20481;-59
2023/04/12 09:07:07;;;;;;;0.10;0.10;;;;;;;21.50;35.14;98857.34;4516988;28;21069;-58
2023/04/12 09:09:18;;;;;;;0.10;0.10;;;;;;;21.52;35.15;98866.31;4532769;28;20037;-58
2023/04/12 09:11:28;;;;;;;0.20;0.20;;;;;;;21.54;35.11;98864.69;4529823;28;20037;-58
2023/04/12 09:13:39;;;;;;;0.10;0.10;;;;;;;21.40;35.26;98853.25;4531481;28;20489;-58
2023/04/12 09:15:50;;;;;;;0.20;0.20;;;;;;;21.54;35.20;98855.25;4517902;28;20435;-59
2023/04/12 09:18:09;;;;;;;0.10;0.10;;;;;;;21.54;35.14;98858.97;4532584;28;20044;-59
2023/04/12 09:20:20;;;;;;;0.10;0.10;;;;;;;21.53;35.20;98848.69;4533868;28;21386;-59
2023/04/12 09:22:35;;;;;;;0.10;0.10;;;;;;;21.55;35.54;98843.34;4514148;28;20173;-59
2023/04/12 09:24:48;;;;;;;0.30;0.10;;;;;;;21.49;35.37;98839.28;4531964;28;20037;-59
2023/04/12 09:27:06;;;;;;;0.00;0.00;;;;;;;21.56;34.92;98844.19;4532567;28;20139;-59
2023/04/12 09:29:26;;;;;;;0.08;0.08;;;;;;;21.57;34.86;98837.19;4532730;28;20032;-59
2023/04/12 09:31:36;;;;;;;0.30;0.10;;;;;;;21.50;34.79;98823.69;4531363;28;20088;-59
2023/04/12 09:33:47;;;;;;;0.05;0.05;;;;;;;21.56;34.71;98830.66;4512182;28;20568;-58
2023/04/12 09:36:02;;;;;;;0.30;0.15;;;;;;;21.56;35.28;98822.03;4533250;28;20095;-58
2023/04/12 09:38:13;;;;;;;0.00;0.00;;;;;;;21.56;35.46;98809.72;4531578;28;20037;-58
2023/04/12 09:40:24;;;;;;;0.08;0.08;;;;;;;21.58;35.44;98816.69;4532084;28;20592;-58
2023/04/12 09:42:55;;;;;;;0.20;0.13;;;;;;;21.57;35.45;98809.31;4533197;28;20528;-59
2023/04/12 09:45:23;;;;;;;0.10;0.10;;;;;;;21.57;35.18;98803.56;4530651;28;20049;-60
2023/04/12 09:47:38;;;;;;;0.10;0.10;;;;;;;21.58;35.50;98802.31;4533774;28;20549;-59
2023/04/12 09:49:48;;;;;;;0.10;0.10;;;;;;;21.58;35.35;98790.84;4508137;28;20636;-59
2023/04/12 09:51:59;;;;;;;0.38;0.10;;;;;;;21.54;35.43;98790.06;4518891;28;20041;-59
2023/04/12 09:54:09;;;;;;;0.10;0.10;;;;;;;21.60;35.57;98799.88;4530953;28;21145;-59
2023/04/12 09:56:21;;;;;;;0.10;0.10;;;;;;;21.57;35.56;98788.41;4533067;28;20032;-59
2023/04/12 09:58:35;;;;;;;0.10;0.10;;;;;;;21.60;35.67;98788.38;4532779;28;20025;-60
2023/04/12 10:00:46;;;;;;;0.10;0.10;;;;;;;21.60;35.40;98788.38;4531960;28;20575;-61
2023/04/12 10:02:56;;;;;;;0.00;0.00;;;;;;;21.58;35.28;98781.44;4533632;28;20040;-59
2023/04/12 10:05:11;;;;;;;0.00;0.00;;;;;;;21.56;35.54;98778.97;4531700;28;20045;-61
2023/04/12 10:07:22;;;;;;;0.00;0.00;;;;;;;21.53;35.46;98776.91;4531111;28;20115;-61
2023/04/12 10:09:34;;;;;;;0.08;0.08;;;;;;;21.56;35.15;98769.53;4531047;28;20040;-59
2023/04/12 10:11:46;;;;;;;0.10;0.10;;;;;;;21.61;34.95;98781.38;4532549;28;20042;-61
2023/04/12 10:13:57;;;;;;;0.00;0.00;;;;;;;21.61;35.07;98781.38;4533698;28;20094;-59
2023/04/12 10:16:08;;;;;;;0.10;0.03;;;;;;;21.63;35.55;98775.22;4534476;28;20374;-59
2023/04/12 10:18:19;;;;;;;0.10;0.10;;;;;;;21.57;34.92;98763.38;4529731;28;20390;-58
2023/04/12 10:20:31;;;;;;;0.20;0.20;;;;;;;21.61;35.01;98774.84;4534429;28;20033;-58
2023/04/12 10:22:48;;;;;;;0.10;0.10;;;;;;;21.62;35.22;98779.34;4529816;28;20079;-58
2023/04/12 10:24:59;;;;;;;0.50;0.50;;;;;;;21.58;35.83;98762.13;4533585;28;20111;-58